createdAt,value
2022-12-22T00:02:36.856Z,4.43
2022-12-22T00:05:44.417Z,3.00
2022-12-22T00:08:50.737Z,2.13
2022-12-22T00:11:56.929Z,2.97
2022-12-22T00:15:02.811Z,2.80
2022-12-22T00:18:08.716Z,2.00
2022-12-22T00:21:16.173Z,2.57
2022-12-22T00:24:22.673Z,2.97
2022-12-22T00:27:32.790Z,3.70
2022-12-22T00:30:38.702Z,2.20
2022-12-22T00:33:44.489Z,2.00
2022-12-22T00:36:51.593Z,2.63
2022-12-22T00:39:58.296Z,2.80
2022-12-22T00:43:04.391Z,3.80
2022-12-22T00:46:10.329Z,3.00
2022-12-22T00:49:16.587Z,3.13
2022-12-22T00:52:23.884Z,4.57
2022-12-22T00:55:33.516Z,3.10
2022-12-22T00:58:39.601Z,2.67
2022-12-22T01:01:45.647Z,2.27
2022-12-22T01:04:51.827Z,6.50
2022-12-22T01:07:59.097Z,2.20
2022-12-22T01:11:04.864Z,3.70
2022-12-22T01:14:11.084Z,3.40
2022-12-22T01:17:17.290Z,2.40
2022-12-22T01:20:25.252Z,4.30
2022-12-22T01:23:34.013Z,3.13
2022-12-22T01:26:40.173Z,2.50
2022-12-22T01:29:46.321Z,2.80
2022-12-22T01:32:52.249Z,2.10
2022-12-22T01:35:58.309Z,3.20
2022-12-22T01:39:05.539Z,2.63
2022-12-22T01:42:11.471Z,4.40
2022-12-22T01:45:19.223Z,3.60
2022-12-22T01:48:29.422Z,3.83
2022-12-22T01:51:39.249Z,3.63
2022-12-22T01:54:46.455Z,2.90
2022-12-22T01:57:52.326Z,2.83
2022-12-22T02:00:58.084Z,3.33
2022-12-22T02:04:03.991Z,2.83
2022-12-22T02:07:09.851Z,2.77
2022-12-22T02:10:23.899Z,4.03
2022-12-22T02:13:38.329Z,2.40
2022-12-22T02:16:48.348Z,3.00
2022-12-22T02:20:22.116Z,2.17
2022-12-22T02:23:32.265Z,2.10
2022-12-22T02:26:43.762Z,4.63
2022-12-22T02:29:52.113Z,3.93
2022-12-22T02:33:06.949Z,1.87
2022-12-22T02:36:20.596Z,5.23
2022-12-22T02:39:30.346Z,3.90
2022-12-22T02:42:44.030Z,2.43
2022-12-22T02:45:56.319Z,2.40
2022-12-22T02:49:05.389Z,4.20
2022-12-22T02:52:24.422Z,2.40
2022-12-22T02:55:30.376Z,2.97
2022-12-22T02:58:37.752Z,6.30
2022-12-22T03:01:43.729Z,3.07
2022-12-22T03:04:49.566Z,5.20
2022-12-22T03:07:55.696Z,3.60
2022-12-22T03:11:01.795Z,7.07
2022-12-22T03:14:09.231Z,3.23
2022-12-22T03:17:15.330Z,4.00
2022-12-22T03:20:21.309Z,3.43
2022-12-22T03:23:27.437Z,4.40
2022-12-22T03:26:15.870Z,3.07
2022-12-22T03:29:05.642Z,3.17
2022-12-22T03:31:54.312Z,2.80
2022-12-22T03:34:42.771Z,5.60
2022-12-22T03:37:31.163Z,3.93
2022-12-22T03:40:19.668Z,2.87
2022-12-22T03:43:25.676Z,1.83
2022-12-22T03:46:31.471Z,3.53
2022-12-22T03:49:22.305Z,2.20
2022-12-22T03:52:10.680Z,3.13
2022-12-22T03:54:59.049Z,4.03
2022-12-22T03:57:47.465Z,4.20
2022-12-22T04:00:35.892Z,2.83
2022-12-22T04:03:25.700Z,2.20
2022-12-22T04:06:14.143Z,2.50
2022-12-22T04:09:04.702Z,1.97
2022-12-22T04:12:10.879Z,2.57
2022-12-22T04:14:59.284Z,1.70
2022-12-22T04:17:47.671Z,1.90
2022-12-22T04:20:37.438Z,3.47
2022-12-22T04:23:25.875Z,3.10
2022-12-22T04:26:14.237Z,2.47
2022-12-22T04:29:02.789Z,2.60
2022-12-22T04:31:51.302Z,2.20
2022-12-22T04:34:39.741Z,2.73
2022-12-22T04:37:29.484Z,4.13
2022-12-22T04:40:18.047Z,3.00
2022-12-22T04:43:06.862Z,3.63
2022-12-22T04:45:57.219Z,1.97
2022-12-22T04:48:45.628Z,4.27
2022-12-22T04:51:34.012Z,2.13
2022-12-22T04:54:23.731Z,3.17
2022-12-22T04:57:12.254Z,3.10
2022-12-22T05:00:00.620Z,3.23
2022-12-22T05:02:49.152Z,5.17
2022-12-22T05:05:37.772Z,4.50
2022-12-22T05:08:26.174Z,5.13
2022-12-22T05:11:15.898Z,2.10
2022-12-22T05:14:07.437Z,3.43
2022-12-22T05:16:56.020Z,4.87
2022-12-22T05:19:44.478Z,2.47
2022-12-22T05:22:32.872Z,2.07
2022-12-22T05:25:21.849Z,4.87
2022-12-22T05:28:11.556Z,2.10
2022-12-22T05:31:05.000Z,2.63
2022-12-22T05:33:53.563Z,2.17
2022-12-22T05:36:41.966Z,1.83
2022-12-22T05:39:30.433Z,3.47
2022-12-22T05:42:35.639Z,2.47
2022-12-22T05:45:25.490Z,3.50
2022-12-22T05:48:14.010Z,3.53
2022-12-22T05:51:02.589Z,3.93
2022-12-22T05:53:51.022Z,4.00
2022-12-22T05:56:39.537Z,3.20
2022-12-22T05:59:27.918Z,4.23
2022-12-22T06:02:17.908Z,3.30
2022-12-22T06:05:07.643Z,2.53
2022-12-22T06:07:56.035Z,3.23
2022-12-22T06:10:44.424Z,3.10
2022-12-22T06:13:32.799Z,4.30
2022-12-22T06:16:21.309Z,3.67
2022-12-22T06:19:11.057Z,4.60
2022-12-22T06:21:59.458Z,5.00
2022-12-22T06:24:47.843Z,3.27
2022-12-22T06:27:36.420Z,5.90
2022-12-22T06:30:32.695Z,3.93
2022-12-22T06:33:21.941Z,3.83
2022-12-22T06:36:12.351Z,4.20
2022-12-22T06:39:00.745Z,3.33
2022-12-22T06:42:06.959Z,5.80
2022-12-22T06:44:55.544Z,3.83
2022-12-22T06:47:44.025Z,4.40
2022-12-22T06:50:32.438Z,4.30
2022-12-22T06:53:22.151Z,4.67
2022-12-22T06:56:10.545Z,7.77
2022-12-22T06:58:58.919Z,6.20
2022-12-22T07:01:47.444Z,6.83
2022-12-22T07:04:19.681Z,4.57
2022-12-22T07:06:47.943Z,7.13
2022-12-22T07:09:17.391Z,4.30
2022-12-22T07:11:45.901Z,4.83
2022-12-22T07:14:14.079Z,5.17
2022-12-22T07:16:42.342Z,6.00
2022-12-22T07:19:10.627Z,5.80
2022-12-22T07:21:39.098Z,6.70
2022-12-22T07:24:08.368Z,7.57
2022-12-22T07:26:37.917Z,5.57
2022-12-22T07:29:06.119Z,7.90
2022-12-22T07:31:34.286Z,5.03
2022-12-22T07:34:02.472Z,6.70
2022-12-22T07:36:30.631Z,4.70
2022-12-22T07:38:58.785Z,4.80
2022-12-22T07:41:44.384Z,8.03
2022-12-22T07:44:14.241Z,7.13
2022-12-22T07:46:42.417Z,5.83
2022-12-22T07:49:29.183Z,4.60
2022-12-22T07:51:57.880Z,6.33
2022-12-22T07:54:26.313Z,5.20
2022-12-22T07:56:54.705Z,5.17
2022-12-22T07:59:24.172Z,3.60
2022-12-22T08:01:52.390Z,6.50
2022-12-22T08:04:21.910Z,11.53
2022-12-22T08:06:50.046Z,5.40
2022-12-22T08:09:21.457Z,5.10
2022-12-22T08:11:50.254Z,4.67
2022-12-22T08:14:18.407Z,7.20
2022-12-22T08:16:47.969Z,4.60
2022-12-22T08:19:16.190Z,5.03
2022-12-22T08:21:52.194Z,8.03
2022-12-22T08:24:21.340Z,6.00
2022-12-22T08:26:51.234Z,4.27
2022-12-22T08:29:20.875Z,4.47
2022-12-22T08:31:50.370Z,6.90
2022-12-22T08:34:18.671Z,7.50
2022-12-22T08:36:50.372Z,6.63
2022-12-22T08:39:18.522Z,7.57
2022-12-22T08:41:52.628Z,8.23
2022-12-22T08:44:23.566Z,7.47
2022-12-22T08:46:56.551Z,8.50
2022-12-22T08:49:24.730Z,7.20
2022-12-22T08:51:52.937Z,6.97
2022-12-22T08:54:21.144Z,7.43
2022-12-22T08:56:49.510Z,5.87
2022-12-22T08:59:17.767Z,8.97
2022-12-22T09:01:50.299Z,9.13
2022-12-22T09:04:21.335Z,8.17
2022-12-22T09:06:49.928Z,6.00
2022-12-22T09:09:18.309Z,9.33
2022-12-22T09:11:46.504Z,8.40
2022-12-22T09:14:14.731Z,10.20
2022-12-22T09:16:42.971Z,8.30
2022-12-22T09:19:11.344Z,7.50
2022-12-22T09:21:40.826Z,10.87
2022-12-22T09:24:09.762Z,11.27
2022-12-22T09:26:37.852Z,8.77
2022-12-22T09:29:06.099Z,10.57
2022-12-22T09:31:34.520Z,9.97
2022-12-22T09:34:02.773Z,7.40
2022-12-22T09:36:33.640Z,8.87
2022-12-22T09:39:07.130Z,10.67
2022-12-22T09:41:37.931Z,12.00
2022-12-22T09:44:07.282Z,11.87
2022-12-22T09:46:36.768Z,7.33
2022-12-22T09:49:06.237Z,8.20
2022-12-22T09:51:35.017Z,9.73
2022-12-22T09:54:03.159Z,6.60
2022-12-22T09:56:32.682Z,8.43
2022-12-22T09:59:00.856Z,9.37
2022-12-22T10:01:40.497Z,5.63
2022-12-22T10:04:15.434Z,6.87
2022-12-22T10:06:52.565Z,6.67
2022-12-22T10:09:48.301Z,12.57
2022-12-22T10:12:17.711Z,7.43
2022-12-22T10:14:48.309Z,9.03
2022-12-22T10:17:21.924Z,8.93
2022-12-22T10:19:51.672Z,5.40
2022-12-22T10:22:28.310Z,7.63
2022-12-22T10:24:56.701Z,6.57
2022-12-22T10:27:29.393Z,6.27
2022-12-22T10:30:19.594Z,6.77
2022-12-22T10:33:04.527Z,4.50
2022-12-22T10:35:50.627Z,2.73
2022-12-22T10:38:26.034Z,3.53
2022-12-22T10:41:01.908Z,4.53
2022-12-22T10:43:34.106Z,4.27
2022-12-22T10:46:02.322Z,3.30
2022-12-22T10:48:32.221Z,2.87
2022-12-22T10:51:00.814Z,6.47
2022-12-22T10:53:48.131Z,1.73
2022-12-22T10:56:25.530Z,2.33
2022-12-22T10:58:56.431Z,2.67
2022-12-22T11:01:27.665Z,3.40
2022-12-22T11:03:56.048Z,4.20
2022-12-22T11:06:24.277Z,4.83
2022-12-22T11:08:52.404Z,6.17
2022-12-22T11:11:33.416Z,3.70
2022-12-22T11:14:13.824Z,3.13
2022-12-22T11:16:47.763Z,3.13
2022-12-22T11:19:31.302Z,3.30
2022-12-22T11:22:02.931Z,1.43
2022-12-22T11:24:37.042Z,2.63
2022-12-22T11:27:17.712Z,2.63
2022-12-22T11:30:13.689Z,2.80
2022-12-22T11:33:07.931Z,2.87
2022-12-22T11:35:48.846Z,2.93
2022-12-22T11:38:25.774Z,1.50
2022-12-22T11:40:59.600Z,1.70
2022-12-22T11:43:31.945Z,3.60
2022-12-22T11:46:15.979Z,1.67
2022-12-22T11:49:18.301Z,2.33
2022-12-22T11:52:07.801Z,4.23
2022-12-22T11:55:04.699Z,1.20
2022-12-22T11:57:37.049Z,2.53
2022-12-22T12:00:09.548Z,1.53
2022-12-22T12:03:21.639Z,2.40
2022-12-22T12:06:16.348Z,2.33
2022-12-22T12:08:56.571Z,1.40
2022-12-22T12:11:28.832Z,2.47
2022-12-22T12:14:03.629Z,2.20
2022-12-22T12:16:37.770Z,1.20
2022-12-22T12:19:28.460Z,1.93
2022-12-22T12:21:58.624Z,1.10
2022-12-22T12:24:43.541Z,1.80
2022-12-22T12:27:18.844Z,2.93
2022-12-22T12:30:13.448Z,1.70
2022-12-22T12:32:42.412Z,1.73
2022-12-22T12:35:44.933Z,1.43
2022-12-22T12:38:47.859Z,1.83
2022-12-22T12:41:11.988Z,2.40
2022-12-22T12:43:40.325Z,1.23
2022-12-22T12:46:53.818Z,1.43
2022-12-22T12:50:20.237Z,1.40
2022-12-22T12:53:17.072Z,1.80
2022-12-22T12:56:03.151Z,1.27
2022-12-22T12:58:54.329Z,3.17
2022-12-22T13:02:00.206Z,1.70
2022-12-22T13:05:26.338Z,1.27
2022-12-22T13:08:19.959Z,1.50
2022-12-22T13:12:01.152Z,1.40
2022-12-22T13:14:12.790Z,1.20
2022-12-22T13:16:41.285Z,2.83
2022-12-22T13:19:22.308Z,2.17
2022-12-22T13:21:53.336Z,1.30
2022-12-22T13:24:30.740Z,1.70
2022-12-22T13:27:04.747Z,1.80
2022-12-22T13:29:46.696Z,1.17
2022-12-22T13:32:24.845Z,1.20
2022-12-22T13:37:54.928Z,1.20
2022-12-22T13:40:25.683Z,1.00
2022-12-22T13:42:55.294Z,1.43
2022-12-22T13:45:39.784Z,1.40
2022-12-22T13:48:14.980Z,1.40
2022-12-22T13:50:45.799Z,1.40
2022-12-22T13:53:42.275Z,2.40
2022-12-22T13:56:10.014Z,2.70
2022-12-22T13:58:40.101Z,2.93
2022-12-22T14:01:17.961Z,3.67
2022-12-22T14:04:00.847Z,3.03
2022-12-22T14:06:31.336Z,2.23
2022-12-22T14:09:13.896Z,1.60
2022-12-22T14:11:51.191Z,1.60
2022-12-22T14:14:26.483Z,2.27
2022-12-22T14:16:57.028Z,1.63
2022-12-22T14:19:25.792Z,3.23
2022-12-22T14:22:03.746Z,1.87
2022-12-22T14:24:38.271Z,1.60
2022-12-22T14:27:08.463Z,1.80
2022-12-22T14:29:36.577Z,2.80
2022-12-22T14:32:05.187Z,2.60
2022-12-22T14:34:34.693Z,2.13
2022-12-22T14:37:03.249Z,2.30
2022-12-22T14:39:32.608Z,1.60
2022-12-22T14:42:02.673Z,2.40
2022-12-22T14:44:34.209Z,3.97
2022-12-22T14:47:14.936Z,2.80
2022-12-22T14:49:51.481Z,2.23
2022-12-22T14:52:24.087Z,3.27
2022-12-22T14:54:53.085Z,2.50
2022-12-22T14:57:28.939Z,6.17
2022-12-22T15:00:05.185Z,4.57
2022-12-22T15:02:39.034Z,11.83
2022-12-22T15:05:11.298Z,9.43
2022-12-22T15:08:05.199Z,12.67
2022-12-22T15:10:40.789Z,6.67
2022-12-22T15:13:14.274Z,7.77
2022-12-22T15:15:43.954Z,14.97
2022-12-22T15:18:14.192Z,14.20
2022-12-22T15:20:42.341Z,8.93
2022-12-22T15:23:14.017Z,5.23
2022-12-22T15:25:42.151Z,5.60
2022-12-22T15:28:10.396Z,8.80
2022-12-22T15:30:38.586Z,3.40
2022-12-22T15:33:13.137Z,3.57
2022-12-22T15:35:41.314Z,4.33
2022-12-22T15:38:13.127Z,5.67
2022-12-22T15:40:41.300Z,3.37
2022-12-22T15:43:22.212Z,3.20
2022-12-22T15:45:57.368Z,3.07
2022-12-22T15:48:28.479Z,3.10
2022-12-22T15:50:56.696Z,3.40
2022-12-22T15:53:24.805Z,4.20
2022-12-22T15:55:54.627Z,4.37
2022-12-22T15:58:24.877Z,4.47
2022-12-22T16:00:53.118Z,4.50
2022-12-22T16:03:21.535Z,3.73
2022-12-22T16:05:52.644Z,5.73
2022-12-22T16:08:26.290Z,4.97
2022-12-22T16:10:54.453Z,5.03
2022-12-22T16:13:25.138Z,2.57
2022-12-22T16:15:53.286Z,3.67
2022-12-22T16:18:21.435Z,2.10
2022-12-22T16:20:51.121Z,3.47
2022-12-22T16:23:21.306Z,4.60
2022-12-22T16:25:50.875Z,5.70
2022-12-22T16:28:22.781Z,2.90
2022-12-22T16:30:51.151Z,3.33
2022-12-22T16:33:19.478Z,5.37
2022-12-22T16:35:47.651Z,4.10
2022-12-22T16:38:19.315Z,3.07
2022-12-22T16:40:48.708Z,4.73
2022-12-22T16:46:07.225Z,2.77
2022-12-22T16:48:42.317Z,6.30
2022-12-22T16:51:12.160Z,6.73
2022-12-22T16:53:41.648Z,10.13
2022-12-22T16:56:14.528Z,8.57
2022-12-22T16:58:42.647Z,8.23
2022-12-22T17:01:17.293Z,11.27
2022-12-22T17:03:45.582Z,18.43
2022-12-22T17:06:13.923Z,16.27
2022-12-22T17:08:43.545Z,8.87
2022-12-22T17:11:19.852Z,17.03
2022-12-22T17:13:48.076Z,15.33
2022-12-22T17:16:20.447Z,14.67
2022-12-22T17:18:49.032Z,18.43
2022-12-22T17:21:18.485Z,20.20
2022-12-22T17:23:49.901Z,19.17
2022-12-22T17:26:20.820Z,21.57
2022-12-22T17:28:49.011Z,17.83
2022-12-22T17:31:18.034Z,21.10
2022-12-22T17:33:46.239Z,25.60
2022-12-22T17:36:21.190Z,23.10
2022-12-22T17:38:50.632Z,23.47
2022-12-22T17:41:18.794Z,17.60
2022-12-22T17:43:47.488Z,17.87
2022-12-22T17:46:16.432Z,18.13
2022-12-22T17:48:44.676Z,22.40
2022-12-22T17:51:21.927Z,21.07
2022-12-22T17:53:51.571Z,23.03
2022-12-22T17:56:20.964Z,21.27
2022-12-22T17:58:49.252Z,23.17
2022-12-22T18:01:22.776Z,17.33
2022-12-22T18:03:51.038Z,18.30
2022-12-22T18:06:20.453Z,16.97
2022-12-22T18:08:48.812Z,21.87
2022-12-22T18:11:18.351Z,20.50
2022-12-22T18:13:46.501Z,24.27
2022-12-22T18:16:16.525Z,19.20
2022-12-22T18:18:44.846Z,18.63
2022-12-22T18:21:17.463Z,22.10
2022-12-22T18:23:49.943Z,19.40
2022-12-22T18:26:23.117Z,23.40
2022-12-22T18:28:51.663Z,23.47
2022-12-22T18:31:19.913Z,20.10
2022-12-22T18:33:48.116Z,21.90
2022-12-22T18:36:21.487Z,20.50
2022-12-22T18:38:49.635Z,13.43
2022-12-22T18:41:22.371Z,17.83
2022-12-22T18:43:50.627Z,20.87
2022-12-22T18:46:18.978Z,21.97
2022-12-22T18:48:48.110Z,23.73
2022-12-22T18:51:20.836Z,18.60
2022-12-22T18:53:49.141Z,18.73
2022-12-22T18:56:17.445Z,20.20
2022-12-22T18:58:47.096Z,19.77
2022-12-22T19:01:20.211Z,20.80
2022-12-22T19:03:48.463Z,17.33
2022-12-22T19:06:17.266Z,15.53
2022-12-22T19:08:47.191Z,20.47
2022-12-22T19:11:15.764Z,17.47
2022-12-22T19:13:46.978Z,16.40
2022-12-22T19:16:15.884Z,16.83
2022-12-22T19:18:44.306Z,13.90
2022-12-22T19:21:14.187Z,19.10
2022-12-22T19:23:42.430Z,15.07
2022-12-22T19:26:20.639Z,12.17
2022-12-22T19:28:50.382Z,12.20
2022-12-22T19:31:22.625Z,13.80
2022-12-22T19:33:50.971Z,13.80
2022-12-22T19:36:21.690Z,14.00
2022-12-22T19:38:50.959Z,15.43
2022-12-22T19:41:30.065Z,19.60
2022-12-22T19:43:59.563Z,17.57
2022-12-22T19:46:30.003Z,18.10
2022-12-22T19:48:58.427Z,16.17
2022-12-22T19:51:26.626Z,15.47
2022-12-22T19:53:54.859Z,17.07
2022-12-22T19:56:24.663Z,14.17
2022-12-22T19:58:52.839Z,14.43
2022-12-22T20:01:22.485Z,13.63
2022-12-22T20:03:50.863Z,12.70
2022-12-22T20:06:19.072Z,11.90
2022-12-22T20:08:47.217Z,17.47
2022-12-22T20:11:16.865Z,12.47
2022-12-22T20:13:45.259Z,17.13
2022-12-22T20:16:14.793Z,16.73
2022-12-22T20:18:46.230Z,13.97
2022-12-22T20:21:16.352Z,17.93
2022-12-22T20:23:45.721Z,15.40
2022-12-22T20:26:17.074Z,13.00
2022-12-22T20:28:45.235Z,14.77
2022-12-22T20:31:14.819Z,15.60
2022-12-22T20:33:44.308Z,13.93
2022-12-22T20:36:20.480Z,14.30
2022-12-22T20:38:48.999Z,11.37
2022-12-22T20:41:17.105Z,14.70
2022-12-22T20:43:45.917Z,15.30
2022-12-22T20:46:16.516Z,13.07
2022-12-22T20:48:48.020Z,14.73
2022-12-22T20:51:18.469Z,19.87
2022-12-22T20:53:46.988Z,14.67
2022-12-22T20:56:21.646Z,13.97
2022-12-22T20:58:50.047Z,13.47
2022-12-22T21:01:18.376Z,16.57
2022-12-22T21:04:06.804Z,11.43
2022-12-22T21:06:54.337Z,13.87
2022-12-22T21:09:42.769Z,12.37
2022-12-22T21:12:31.206Z,11.67
2022-12-22T21:15:20.681Z,11.30
2022-12-22T21:18:15.971Z,14.07
2022-12-22T21:21:05.967Z,10.93
2022-12-22T21:23:54.376Z,10.90
2022-12-22T21:26:46.331Z,11.37
2022-12-22T21:29:34.760Z,11.57
2022-12-22T21:32:23.284Z,12.97
2022-12-22T21:35:15.547Z,9.80
2022-12-22T21:38:05.334Z,11.17
2022-12-22T21:40:53.784Z,8.83
2022-12-22T21:43:42.222Z,10.60
2022-12-22T21:46:30.831Z,10.73
2022-12-22T21:49:20.287Z,10.23
2022-12-22T21:52:08.827Z,9.83
2022-12-22T21:54:58.755Z,9.73
2022-12-22T21:57:47.254Z,11.37
2022-12-22T22:00:35.955Z,12.30
2022-12-22T22:03:24.419Z,10.67
2022-12-22T22:06:12.857Z,11.17
2022-12-22T22:09:01.250Z,8.87
2022-12-22T22:12:08.308Z,6.80
2022-12-22T22:14:56.720Z,9.57
2022-12-22T22:17:45.514Z,8.70
2022-12-22T22:20:33.909Z,6.73
2022-12-22T22:23:22.350Z,7.73
2022-12-22T22:26:11.146Z,5.60
2022-12-22T22:29:01.001Z,7.93
2022-12-22T22:31:49.484Z,9.37
2022-12-22T22:34:38.029Z,8.40
2022-12-22T22:37:26.448Z,8.17
2022-12-22T22:40:15.847Z,8.03
2022-12-22T22:43:04.307Z,8.23
2022-12-22T22:45:54.063Z,7.57
2022-12-22T22:48:42.542Z,6.27
2022-12-22T22:51:31.215Z,6.17
2022-12-22T22:54:19.647Z,5.03
2022-12-22T22:57:08.050Z,6.33
2022-12-22T22:59:56.464Z,8.10
2022-12-22T23:02:46.519Z,3.90
2022-12-22T23:05:35.071Z,7.23
2022-12-22T23:08:23.450Z,8.33
2022-12-22T23:11:14.420Z,7.87
2022-12-22T23:14:02.784Z,6.40
2022-12-22T23:16:51.273Z,5.70
2022-12-22T23:19:41.021Z,6.97
2022-12-22T23:22:29.469Z,5.57
2022-12-22T23:25:18.059Z,6.10
2022-12-22T23:28:06.684Z,8.33
2022-12-22T23:30:55.110Z,6.00
2022-12-22T23:33:43.554Z,7.70
2022-12-22T23:36:33.345Z,7.87
2022-12-22T23:39:21.745Z,7.60
2022-12-22T23:42:10.135Z,5.03
2022-12-22T23:44:58.509Z,5.10
2022-12-22T23:47:46.993Z,5.87
2022-12-22T23:50:35.583Z,5.67
2022-12-22T23:53:25.377Z,5.47
2022-12-22T23:56:14.419Z,5.10
2022-12-22T23:59:06.359Z,3.60
